sensor_id;sensor_type;location;lat;lon;timestamp;P1;durP1;ratioP1;P2;durP2;ratioP2
58565;SDS011;47788;46.172;-1.158;2022-09-24T00:00:36;4.90;;;3.50;;
58565;SDS011;47788;46.172;-1.158;2022-09-24T00:03:02;6.30;;;3.90;;
58565;SDS011;47788;46.172;-1.158;2022-09-24T00:05:27;7.70;;;3.58;;
58565;SDS011;47788;46.172;-1.158;2022-09-24T00:07:53;4.95;;;3.78;;
58565;SDS011;47788;46.172;-1.158;2022-09-24T00:10:19;7.10;;;4.35;;
58565;SDS011;47788;46.172;-1.158;2022-09-24T00:12:45;5.63;;;3.60;;
58565;SDS011;47788;46.172;-1.158;2022-09-24T00:15:12;8.40;;;4.15;;
58565;SDS011;47788;46.172;-1.158;2022-09-24T00:17:37;5.32;;;3.65;;
58565;SDS011;47788;46.172;-1.158;2022-09-24T00:20:03;5.75;;;3.75;;
58565;SDS011;47788;46.172;-1.158;2022-09-24T00:22:30;7.28;;;3.75;;
58565;SDS011;47788;46.172;-1.158;2022-09-24T00:24:56;6.45;;;3.80;;
58565;SDS011;47788;46.172;-1.158;2022-09-24T00:27:40;5.80;;;3.70;;
58565;SDS011;47788;46.172;-1.158;2022-09-24T00:30:06;7.78;;;3.72;;
58565;SDS011;47788;46.172;-1.158;2022-09-24T00:32:32;4.75;;;3.13;;
58565;SDS011;47788;46.172;-1.158;2022-09-24T00:34:58;8.05;;;3.53;;
58565;SDS011;47788;46.172;-1.158;2022-09-24T00:37:23;5.53;;;3.70;;
58565;SDS011;47788;46.172;-1.158;2022-09-24T00:39:49;7.55;;;3.50;;
58565;SDS011;47788;46.172;-1.158;2022-09-24T00:42:17;8.88;;;4.45;;
58565;SDS011;47788;46.172;-1.158;2022-09-24T00:47:21;8.13;;;3.80;;
58565;SDS011;47788;46.172;-1.158;2022-09-24T00:50:08;6.30;;;3.50;;
58565;SDS011;47788;46.172;-1.158;2022-09-24T00:52:42;5.75;;;3.72;;
58565;SDS011;47788;46.172;-1.158;2022-09-24T00:55:15;4.45;;;3.38;;
58565;SDS011;47788;46.172;-1.158;2022-09-24T00:57:47;5.75;;;3.83;;
58565;SDS011;47788;46.172;-1.158;2022-09-24T01:00:15;5.82;;;4.18;;
58565;SDS011;47788;46.172;-1.158;2022-09-24T01:02:41;7.40;;;3.85;;
58565;SDS011;47788;46.172;-1.158;2022-09-24T01:05:10;5.28;;;3.97;;
58565;SDS011;47788;46.172;-1.158;2022-09-24T01:07:35;4.53;;;3.55;;
58565;SDS011;47788;46.172;-1.158;2022-09-24T01:10:01;5.85;;;3.47;;
58565;SDS011;47788;46.172;-1.158;2022-09-24T01:12:50;5.03;;;3.55;;
58565;SDS011;47788;46.172;-1.158;2022-09-24T01:15:23;5.00;;;4.03;;
58565;SDS011;47788;46.172;-1.158;2022-09-24T01:31:56;6.63;;;3.97;;
58565;SDS011;47788;46.172;-1.158;2022-09-24T01:34:31;8.73;;;4.28;;
58565;SDS011;47788;46.172;-1.158;2022-09-24T01:37:06;9.07;;;3.97;;
58565;SDS011;47788;46.172;-1.158;2022-09-24T01:39:32;6.70;;;3.95;;
58565;SDS011;47788;46.172;-1.158;2022-09-24T01:42:01;10.85;;;4.53;;
58565;SDS011;47788;46.172;-1.158;2022-09-24T01:44:28;9.35;;;4.05;;
58565;SDS011;47788;46.172;-1.158;2022-09-24T01:46:55;7.85;;;4.85;;
58565;SDS011;47788;46.172;-1.158;2022-09-24T01:49:20;6.43;;;4.10;;
58565;SDS011;47788;46.172;-1.158;2022-09-24T01:51:47;7.70;;;4.07;;
58565;SDS011;47788;46.172;-1.158;2022-09-24T01:56:51;8.05;;;3.95;;
58565;SDS011;47788;46.172;-1.158;2022-09-24T01:59:29;8.32;;;4.22;;
58565;SDS011;47788;46.172;-1.158;2022-09-24T02:02:35;4.40;;;3.35;;
58565;SDS011;47788;46.172;-1.158;2022-09-24T02:05:17;9.57;;;4.00;;
58565;SDS011;47788;46.172;-1.158;2022-09-24T02:08:15;8.07;;;4.10;;
58565;SDS011;47788;46.172;-1.158;2022-09-24T02:13:17;10.73;;;4.03;;
58565;SDS011;47788;46.172;-1.158;2022-09-24T02:15:49;7.53;;;4.00;;
58565;SDS011;47788;46.172;-1.158;2022-09-24T02:18:18;8.55;;;4.00;;
58565;SDS011;47788;46.172;-1.158;2022-09-24T02:20:47;8.88;;;3.97;;
58565;SDS011;47788;46.172;-1.158;2022-09-24T02:23:15;6.65;;;4.72;;
58565;SDS011;47788;46.172;-1.158;2022-09-24T02:25:45;7.22;;;4.10;;
58565;SDS011;47788;46.172;-1.158;2022-09-24T02:28:17;7.83;;;4.70;;
58565;SDS011;47788;46.172;-1.158;2022-09-24T02:30:44;5.75;;;4.10;;
58565;SDS011;47788;46.172;-1.158;2022-09-24T02:33:14;8.07;;;4.65;;
58565;SDS011;47788;46.172;-1.158;2022-09-24T02:35:58;6.60;;;4.07;;
58565;SDS011;47788;46.172;-1.158;2022-09-24T02:38:24;6.05;;;4.00;;
58565;SDS011;47788;46.172;-1.158;2022-09-24T02:40:50;7.80;;;4.30;;
58565;SDS011;47788;46.172;-1.158;2022-09-24T02:43:17;7.95;;;3.92;;
58565;SDS011;47788;46.172;-1.158;2022-09-24T02:45:42;6.75;;;4.18;;
58565;SDS011;47788;46.172;-1.158;2022-09-24T02:48:08;9.90;;;3.80;;
58565;SDS011;47788;46.172;-1.158;2022-09-24T02:50:34;5.68;;;4.18;;
58565;SDS011;47788;46.172;-1.158;2022-09-24T02:52:59;8.90;;;4.63;;
58565;SDS011;47788;46.172;-1.158;2022-09-24T02:55:25;4.93;;;3.70;;
58565;SDS011;47788;46.172;-1.158;2022-09-24T02:57:51;11.52;;;4.90;;
58565;SDS011;47788;46.172;-1.158;2022-09-24T03:00:17;5.45;;;3.63;;
58565;SDS011;47788;46.172;-1.158;2022-09-24T03:02:45;6.68;;;3.83;;
58565;SDS011;47788;46.172;-1.158;2022-09-24T03:05:11;8.25;;;4.05;;
58565;SDS011;47788;46.172;-1.158;2022-09-24T03:07:42;9.00;;;3.90;;
58565;SDS011;47788;46.172;-1.158;2022-09-24T03:10:08;8.50;;;4.50;;
58565;SDS011;47788;46.172;-1.158;2022-09-24T03:12:34;11.45;;;4.90;;
58565;SDS011;47788;46.172;-1.158;2022-09-24T03:15:00;6.28;;;4.13;;
58565;SDS011;47788;46.172;-1.158;2022-09-24T03:17:25;10.95;;;4.97;;
58565;SDS011;47788;46.172;-1.158;2022-09-24T03:19:52;6.85;;;4.70;;
58565;SDS011;47788;46.172;-1.158;2022-09-24T03:22:18;6.70;;;4.45;;
58565;SDS011;47788;46.172;-1.158;2022-09-24T03:24:44;9.93;;;5.15;;
58565;SDS011;47788;46.172;-1.158;2022-09-24T03:27:09;7.60;;;4.90;;
58565;SDS011;47788;46.172;-1.158;2022-09-24T03:29:35;8.45;;;4.88;;
58565;SDS011;47788;46.172;-1.158;2022-09-24T03:32:19;9.02;;;5.10;;
58565;SDS011;47788;46.172;-1.158;2022-09-24T03:34:45;6.70;;;4.40;;
58565;SDS011;47788;46.172;-1.158;2022-09-24T03:37:11;9.45;;;4.65;;
58565;SDS011;47788;46.172;-1.158;2022-09-24T03:39:37;7.97;;;4.53;;
58565;SDS011;47788;46.172;-1.158;2022-09-24T03:42:03;9.20;;;4.97;;
58565;SDS011;47788;46.172;-1.158;2022-09-24T03:44:28;10.00;;;5.50;;
58565;SDS011;47788;46.172;-1.158;2022-09-24T03:46:54;7.25;;;5.20;;
58565;SDS011;47788;46.172;-1.158;2022-09-24T03:49:20;10.13;;;5.28;;
58565;SDS011;47788;46.172;-1.158;2022-09-24T03:51:47;10.02;;;5.35;;
58565;SDS011;47788;46.172;-1.158;2022-09-24T03:54:14;7.82;;;5.53;;
58565;SDS011;47788;46.172;-1.158;2022-09-24T03:56:40;10.50;;;6.47;;
58565;SDS011;47788;46.172;-1.158;2022-09-24T03:59:08;9.77;;;6.45;;
58565;SDS011;47788;46.172;-1.158;2022-09-24T04:01:35;10.15;;;6.55;;
58565;SDS011;47788;46.172;-1.158;2022-09-24T04:04:01;10.35;;;6.82;;
58565;SDS011;47788;46.172;-1.158;2022-09-24T04:06:27;8.32;;;6.35;;
58565;SDS011;47788;46.172;-1.158;2022-09-24T04:08:53;11.30;;;7.22;;
58565;SDS011;47788;46.172;-1.158;2022-09-24T04:11:19;12.23;;;7.05;;
58565;SDS011;47788;46.172;-1.158;2022-09-24T04:13:45;10.23;;;7.22;;
58565;SDS011;47788;46.172;-1.158;2022-09-24T04:16:11;8.98;;;7.10;;
58565;SDS011;47788;46.172;-1.158;2022-09-24T04:18:36;10.43;;;7.53;;
58565;SDS011;47788;46.172;-1.158;2022-09-24T04:21:03;10.15;;;7.82;;
58565;SDS011;47788;46.172;-1.158;2022-09-24T04:23:29;11.13;;;7.95;;
58565;SDS011;47788;46.172;-1.158;2022-09-24T04:25:55;11.13;;;7.93;;
58565;SDS011;47788;46.172;-1.158;2022-09-24T04:28:24;10.70;;;7.80;;
58565;SDS011;47788;46.172;-1.158;2022-09-24T04:30:50;11.32;;;7.88;;
58565;SDS011;47788;46.172;-1.158;2022-09-24T04:33:15;11.23;;;8.20;;
58565;SDS011;47788;46.172;-1.158;2022-09-24T04:35:41;12.10;;;7.88;;
58565;SDS011;47788;46.172;-1.158;2022-09-24T04:38:07;11.30;;;8.32;;
58565;SDS011;47788;46.172;-1.158;2022-09-24T04:40:32;10.68;;;8.32;;
58565;SDS011;47788;46.172;-1.158;2022-09-24T04:42:58;10.00;;;7.70;;
58565;SDS011;47788;46.172;-1.158;2022-09-24T04:45:24;14.30;;;8.00;;
58565;SDS011;47788;46.172;-1.158;2022-09-24T04:47:50;11.48;;;7.63;;
58565;SDS011;47788;46.172;-1.158;2022-09-24T04:50:20;10.45;;;7.75;;
58565;SDS011;47788;46.172;-1.158;2022-09-24T04:52:46;10.82;;;7.70;;
58565;SDS011;47788;46.172;-1.158;2022-09-24T04:55:12;12.25;;;8.60;;
58565;SDS011;47788;46.172;-1.158;2022-09-24T04:57:38;16.05;;;8.27;;
58565;SDS011;47788;46.172;-1.158;2022-09-24T05:00:07;9.30;;;7.93;;
58565;SDS011;47788;46.172;-1.158;2022-09-24T05:02:38;11.43;;;8.20;;
58565;SDS011;47788;46.172;-1.158;2022-09-24T05:05:04;10.75;;;7.70;;
58565;SDS011;47788;46.172;-1.158;2022-09-24T05:07:30;12.18;;;8.55;;
58565;SDS011;47788;46.172;-1.158;2022-09-24T05:09:56;10.23;;;7.85;;
58565;SDS011;47788;46.172;-1.158;2022-09-24T05:12:22;9.60;;;7.78;;
58565;SDS011;47788;46.172;-1.158;2022-09-24T05:14:47;9.18;;;7.55;;
58565;SDS011;47788;46.172;-1.158;2022-09-24T05:17:13;13.65;;;8.32;;
58565;SDS011;47788;46.172;-1.158;2022-09-24T05:19:39;13.45;;;8.07;;
58565;SDS011;47788;46.172;-1.158;2022-09-24T05:22:04;11.52;;;8.50;;
58565;SDS011;47788;46.172;-1.158;2022-09-24T05:24:30;13.52;;;8.15;;
58565;SDS011;47788;46.172;-1.158;2022-09-24T05:26:56;9.13;;;7.63;;
58565;SDS011;47788;46.172;-1.158;2022-09-24T05:29:35;10.32;;;7.80;;
58565;SDS011;47788;46.172;-1.158;2022-09-24T05:32:08;10.10;;;7.68;;
58565;SDS011;47788;46.172;-1.158;2022-09-24T05:34:35;12.73;;;8.80;;
58565;SDS011;47788;46.172;-1.158;2022-09-24T05:37:01;11.15;;;8.48;;
58565;SDS011;47788;46.172;-1.158;2022-09-24T05:39:27;10.85;;;8.35;;
58565;SDS011;47788;46.172;-1.158;2022-09-24T05:41:54;10.70;;;8.85;;
58565;SDS011;47788;46.172;-1.158;2022-09-24T05:44:20;9.25;;;7.63;;
58565;SDS011;47788;46.172;-1.158;2022-09-24T05:46:47;9.32;;;8.20;;
58565;SDS011;47788;46.172;-1.158;2022-09-24T05:49:13;11.40;;;8.32;;
58565;SDS011;47788;46.172;-1.158;2022-09-24T05:51:39;12.00;;;8.43;;
58565;SDS011;47788;46.172;-1.158;2022-09-24T05:54:04;9.30;;;8.32;;
58565;SDS011;47788;46.172;-1.158;2022-09-24T05:56:30;10.82;;;8.55;;
58565;SDS011;47788;46.172;-1.158;2022-09-24T05:58:56;10.20;;;7.88;;
58565;SDS011;47788;46.172;-1.158;2022-09-24T06:01:21;10.10;;;9.02;;
58565;SDS011;47788;46.172;-1.158;2022-09-24T06:03:48;15.77;;;12.57;;
58565;SDS011;47788;46.172;-1.158;2022-09-24T06:06:14;17.65;;;11.07;;
58565;SDS011;47788;46.172;-1.158;2022-09-24T06:08:40;19.40;;;15.95;;
58565;SDS011;47788;46.172;-1.158;2022-09-24T06:11:06;21.85;;;18.52;;
58565;SDS011;47788;46.172;-1.158;2022-09-24T06:13:32;27.00;;;18.35;;
58565;SDS011;47788;46.172;-1.158;2022-09-24T06:16:02;20.80;;;16.20;;
58565;SDS011;47788;46.172;-1.158;2022-09-24T06:18:29;23.88;;;17.83;;
58565;SDS011;47788;46.172;-1.158;2022-09-24T06:20:59;32.70;;;25.35;;
58565;SDS011;47788;46.172;-1.158;2022-09-24T06:23:27;44.38;;;34.22;;
58565;SDS011;47788;46.172;-1.158;2022-09-24T06:25:53;55.25;;;38.85;;
58565;SDS011;47788;46.172;-1.158;2022-09-24T06:28:18;49.33;;;35.15;;
58565;SDS011;47788;46.172;-1.158;2022-09-24T06:30:44;92.68;;;57.13;;
58565;SDS011;47788;46.172;-1.158;2022-09-24T06:33:10;89.47;;;58.83;;
58565;SDS011;47788;46.172;-1.158;2022-09-24T06:35:37;100.03;;;62.95;;
58565;SDS011;47788;46.172;-1.158;2022-09-24T06:38:05;67.88;;;46.03;;
58565;SDS011;47788;46.172;-1.158;2022-09-24T06:40:32;58.15;;;38.58;;
58565;SDS011;47788;46.172;-1.158;2022-09-24T06:42:58;47.45;;;31.80;;
58565;SDS011;47788;46.172;-1.158;2022-09-24T06:45:24;86.50;;;56.20;;
58565;SDS011;47788;46.172;-1.158;2022-09-24T06:47:54;70.20;;;48.55;;
58565;SDS011;47788;46.172;-1.158;2022-09-24T06:50:21;58.45;;;40.65;;
58565;SDS011;47788;46.172;-1.158;2022-09-24T06:52:48;28.15;;;20.15;;
58565;SDS011;47788;46.172;-1.158;2022-09-24T06:55:14;22.75;;;13.15;;
58565;SDS011;47788;46.172;-1.158;2022-09-24T06:57:40;16.02;;;12.27;;
58565;SDS011;47788;46.172;-1.158;2022-09-24T07:00:06;14.30;;;11.15;;
58565;SDS011;47788;46.172;-1.158;2022-09-24T07:02:32;13.88;;;9.95;;
58565;SDS011;47788;46.172;-1.158;2022-09-24T07:04:58;12.77;;;11.05;;
58565;SDS011;47788;46.172;-1.158;2022-09-24T07:07:23;15.65;;;11.65;;
58565;SDS011;47788;46.172;-1.158;2022-09-24T07:09:57;18.73;;;11.70;;
58565;SDS011;47788;46.172;-1.158;2022-09-24T07:12:27;14.40;;;11.75;;
58565;SDS011;47788;46.172;-1.158;2022-09-24T07:14:54;13.20;;;11.80;;
58565;SDS011;47788;46.172;-1.158;2022-09-24T07:17:20;14.18;;;12.23;;
58565;SDS011;47788;46.172;-1.158;2022-09-24T07:19:45;15.40;;;11.95;;
58565;SDS011;47788;46.172;-1.158;2022-09-24T07:22:11;16.48;;;12.38;;
58565;SDS011;47788;46.172;-1.158;2022-09-24T07:24:37;16.27;;;12.10;;
58565;SDS011;47788;46.172;-1.158;2022-09-24T07:27:03;14.30;;;12.05;;
58565;SDS011;47788;46.172;-1.158;2022-09-24T07:29:30;16.77;;;12.00;;
58565;SDS011;47788;46.172;-1.158;2022-09-24T07:31:56;16.70;;;11.38;;
58565;SDS011;47788;46.172;-1.158;2022-09-24T07:34:21;16.45;;;12.13;;
58565;SDS011;47788;46.172;-1.158;2022-09-24T07:36:47;14.07;;;11.35;;
58565;SDS011;47788;46.172;-1.158;2022-09-24T07:39:13;12.27;;;10.38;;
58565;SDS011;47788;46.172;-1.158;2022-09-24T07:41:38;12.23;;;10.48;;
58565;SDS011;47788;46.172;-1.158;2022-09-24T07:44:06;13.60;;;10.75;;
58565;SDS011;47788;46.172;-1.158;2022-09-24T07:46:34;13.57;;;10.52;;
58565;SDS011;47788;46.172;-1.158;2022-09-24T07:49:00;12.02;;;10.48;;
58565;SDS011;47788;46.172;-1.158;2022-09-24T07:51:26;11.82;;;10.50;;
58565;SDS011;47788;46.172;-1.158;2022-09-24T07:53:55;15.10;;;11.85;;
58565;SDS011;47788;46.172;-1.158;2022-09-24T07:56:22;16.15;;;11.77;;
58565;SDS011;47788;46.172;-1.158;2022-09-24T07:58:48;14.60;;;12.88;;
58565;SDS011;47788;46.172;-1.158;2022-09-24T08:01:15;15.38;;;12.70;;
58565;SDS011;47788;46.172;-1.158;2022-09-24T08:03:42;18.67;;;15.13;;
58565;SDS011;47788;46.172;-1.158;2022-09-24T08:06:08;16.23;;;14.35;;
58565;SDS011;47788;46.172;-1.158;2022-09-24T08:08:34;14.80;;;13.07;;
58565;SDS011;47788;46.172;-1.158;2022-09-24T08:11:06;17.35;;;14.45;;
58565;SDS011;47788;46.172;-1.158;2022-09-24T08:13:33;16.48;;;14.15;;
58565;SDS011;47788;46.172;-1.158;2022-09-24T08:15:59;22.13;;;16.00;;
58565;SDS011;47788;46.172;-1.158;2022-09-24T08:18:27;15.73;;;14.02;;
58565;SDS011;47788;46.172;-1.158;2022-09-24T08:20:55;17.10;;;13.52;;
58565;SDS011;47788;46.172;-1.158;2022-09-24T08:23:31;19.33;;;14.63;;
58565;SDS011;47788;46.172;-1.158;2022-09-24T08:25:57;16.42;;;14.55;;
58565;SDS011;47788;46.172;-1.158;2022-09-24T08:28:24;20.20;;;15.93;;
58565;SDS011;47788;46.172;-1.158;2022-09-24T08:30:50;19.13;;;15.20;;
58565;SDS011;47788;46.172;-1.158;2022-09-24T08:33:15;17.05;;;14.80;;
58565;SDS011;47788;46.172;-1.158;2022-09-24T08:35:41;20.48;;;15.73;;
58565;SDS011;47788;46.172;-1.158;2022-09-24T08:38:07;19.00;;;15.25;;
58565;SDS011;47788;46.172;-1.158;2022-09-24T08:40:43;17.77;;;15.18;;
58565;SDS011;47788;46.172;-1.158;2022-09-24T08:45:59;18.25;;;15.73;;
58565;SDS011;47788;46.172;-1.158;2022-09-24T08:48:48;15.82;;;13.98;;
58565;SDS011;47788;46.172;-1.158;2022-09-24T08:51:17;16.50;;;13.93;;
58565;SDS011;47788;46.172;-1.158;2022-09-24T08:53:46;16.00;;;12.82;;
58565;SDS011;47788;46.172;-1.158;2022-09-24T08:56:23;13.18;;;11.65;;
58565;SDS011;47788;46.172;-1.158;2022-09-24T08:58:54;15.52;;;11.68;;
58565;SDS011;47788;46.172;-1.158;2022-09-24T09:12:20;11.85;;;9.85;;
58565;SDS011;47788;46.172;-1.158;2022-09-24T09:14:54;16.65;;;10.57;;
58565;SDS011;47788;46.172;-1.158;2022-09-24T09:17:59;14.40;;;11.45;;
58565;SDS011;47788;46.172;-1.158;2022-09-24T09:22:52;14.20;;;10.77;;
58565;SDS011;47788;46.172;-1.158;2022-09-24T09:25:19;17.40;;;11.52;;
58565;SDS011;47788;46.172;-1.158;2022-09-24T09:28:10;12.30;;;10.67;;
58565;SDS011;47788;46.172;-1.158;2022-09-24T09:30:42;11.65;;;10.07;;
58565;SDS011;47788;46.172;-1.158;2022-09-24T09:36:38;10.10;;;9.10;;
58565;SDS011;47788;46.172;-1.158;2022-09-24T09:41:51;12.23;;;10.13;;
58565;SDS011;47788;46.172;-1.158;2022-09-24T09:44:24;11.35;;;8.70;;
58565;SDS011;47788;46.172;-1.158;2022-09-24T09:46:54;10.68;;;8.57;;
58565;SDS011;47788;46.172;-1.158;2022-09-24T09:49:29;11.25;;;9.18;;
58565;SDS011;47788;46.172;-1.158;2022-09-24T09:52:00;11.35;;;9.18;;
58565;SDS011;47788;46.172;-1.158;2022-09-24T09:54:37;11.80;;;9.20;;
58565;SDS011;47788;46.172;-1.158;2022-09-24T09:57:05;9.07;;;8.18;;
58565;SDS011;47788;46.172;-1.158;2022-09-24T09:59:36;8.73;;;7.93;;
58565;SDS011;47788;46.172;-1.158;2022-09-24T10:02:08;10.05;;;8.77;;
58565;SDS011;47788;46.172;-1.158;2022-09-24T10:04:37;12.10;;;9.50;;
58565;SDS011;47788;46.172;-1.158;2022-09-24T10:07:11;10.90;;;9.10;;
58565;SDS011;47788;46.172;-1.158;2022-09-24T10:09:40;8.90;;;7.82;;
58565;SDS011;47788;46.172;-1.158;2022-09-24T10:15:14;8.27;;;7.45;;
58565;SDS011;47788;46.172;-1.158;2022-09-24T10:17:46;8.52;;;7.63;;
58565;SDS011;47788;46.172;-1.158;2022-09-24T10:22:52;11.80;;;7.82;;
58565;SDS011;47788;46.172;-1.158;2022-09-24T10:25:21;10.85;;;6.82;;
58565;SDS011;47788;46.172;-1.158;2022-09-24T10:27:50;9.68;;;7.60;;
58565;SDS011;47788;46.172;-1.158;2022-09-24T10:30:18;9.45;;;6.93;;
58565;SDS011;47788;46.172;-1.158;2022-09-24T10:32:59;9.40;;;6.47;;
58565;SDS011;47788;46.172;-1.158;2022-09-24T10:35:28;10.07;;;8.05;;
58565;SDS011;47788;46.172;-1.158;2022-09-24T10:37:58;8.30;;;7.45;;
58565;SDS011;47788;46.172;-1.158;2022-09-24T10:40:28;8.15;;;7.10;;
58565;SDS011;47788;46.172;-1.158;2022-09-24T10:43:02;7.78;;;6.75;;
58565;SDS011;47788;46.172;-1.158;2022-09-24T10:46:12;8.90;;;6.47;;
58565;SDS011;47788;46.172;-1.158;2022-09-24T10:48:49;7.93;;;6.75;;
58565;SDS011;47788;46.172;-1.158;2022-09-24T10:54:18;10.50;;;7.55;;
58565;SDS011;47788;46.172;-1.158;2022-09-24T10:57:11;7.85;;;6.72;;
58565;SDS011;47788;46.172;-1.158;2022-09-24T11:03:01;7.72;;;5.63;;
58565;SDS011;47788;46.172;-1.158;2022-09-24T11:05:23;8.88;;;6.82;;
58565;SDS011;47788;46.172;-1.158;2022-09-24T11:08:06;7.43;;;6.33;;
58565;SDS011;47788;46.172;-1.158;2022-09-24T11:10:47;7.35;;;6.47;;
58565;SDS011;47788;46.172;-1.158;2022-09-24T11:13:46;7.55;;;6.78;;
58565;SDS011;47788;46.172;-1.158;2022-09-24T11:22:15;8.45;;;6.15;;
58565;SDS011;47788;46.172;-1.158;2022-09-24T11:24:53;6.65;;;5.95;;
58565;SDS011;47788;46.172;-1.158;2022-09-24T11:38:59;6.43;;;5.60;;
58565;SDS011;47788;46.172;-1.158;2022-09-24T11:47:29;6.00;;;5.40;;
58565;SDS011;47788;46.172;-1.158;2022-09-24T11:49:59;6.90;;;4.72;;
58565;SDS011;47788;46.172;-1.158;2022-09-24T11:57:45;7.20;;;5.07;;
58565;SDS011;47788;46.172;-1.158;2022-09-24T12:00:21;5.20;;;4.35;;
58565;SDS011;47788;46.172;-1.158;2022-09-24T12:03:00;5.53;;;4.55;;
58565;SDS011;47788;46.172;-1.158;2022-09-24T12:05:37;6.10;;;4.63;;
58565;SDS011;47788;46.172;-1.158;2022-09-24T12:08:14;6.10;;;4.47;;
58565;SDS011;47788;46.172;-1.158;2022-09-24T12:10:45;5.43;;;3.97;;
58565;SDS011;47788;46.172;-1.158;2022-09-24T12:15:54;6.15;;;4.68;;
58565;SDS011;47788;46.172;-1.158;2022-09-24T12:21:16;7.25;;;4.80;;
58565;SDS011;47788;46.172;-1.158;2022-09-24T12:23:45;5.43;;;3.40;;
58565;SDS011;47788;46.172;-1.158;2022-09-24T12:26:12;5.05;;;3.75;;
58565;SDS011;47788;46.172;-1.158;2022-09-24T12:32:05;5.40;;;3.60;;
58565;SDS011;47788;46.172;-1.158;2022-09-24T12:37:39;6.43;;;3.38;;
58565;SDS011;47788;46.172;-1.158;2022-09-24T12:42:39;4.40;;;2.97;;
58565;SDS011;47788;46.172;-1.158;2022-09-24T12:45:11;4.30;;;3.10;;
58565;SDS011;47788;46.172;-1.158;2022-09-24T12:47:45;7.57;;;3.70;;
58565;SDS011;47788;46.172;-1.158;2022-09-24T12:50:20;5.53;;;3.63;;
58565;SDS011;47788;46.172;-1.158;2022-09-24T12:52:48;4.60;;;3.78;;
58565;SDS011;47788;46.172;-1.158;2022-09-24T12:55:18;6.47;;;4.05;;
58565;SDS011;47788;46.172;-1.158;2022-09-24T12:57:49;6.75;;;4.80;;
58565;SDS011;47788;46.172;-1.158;2022-09-24T13:00:42;4.93;;;4.32;;
58565;SDS011;47788;46.172;-1.158;2022-09-24T13:05:57;8.02;;;4.38;;
58565;SDS011;47788;46.172;-1.158;2022-09-24T13:08:24;5.70;;;3.85;;
58565;SDS011;47788;46.172;-1.158;2022-09-24T13:10:59;4.95;;;4.15;;
58565;SDS011;47788;46.172;-1.158;2022-09-24T13:13:30;4.45;;;3.35;;
58565;SDS011;47788;46.172;-1.158;2022-09-24T13:16:04;7.25;;;4.30;;
58565;SDS011;47788;46.172;-1.158;2022-09-24T13:18:32;6.30;;;3.25;;
58565;SDS011;47788;46.172;-1.158;2022-09-24T13:21:17;4.63;;;3.22;;
58565;SDS011;47788;46.172;-1.158;2022-09-24T13:23:47;6.72;;;3.55;;
58565;SDS011;47788;46.172;-1.158;2022-09-24T13:28:59;11.18;;;4.85;;
58565;SDS011;47788;46.172;-1.158;2022-09-24T13:34:44;8.63;;;4.40;;
58565;SDS011;47788;46.172;-1.158;2022-09-24T13:36:59;7.97;;;3.38;;
58565;SDS011;47788;46.172;-1.158;2022-09-24T13:39:51;7.25;;;3.28;;
58565;SDS011;47788;46.172;-1.158;2022-09-24T13:42:28;5.47;;;2.38;;
58565;SDS011;47788;46.172;-1.158;2022-09-24T13:45:10;4.10;;;2.20;;
58565;SDS011;47788;46.172;-1.158;2022-09-24T13:47:42;7.28;;;2.97;;
58565;SDS011;47788;46.172;-1.158;2022-09-24T13:52:58;6.50;;;3.50;;
58565;SDS011;47788;46.172;-1.158;2022-09-24T13:57:58;9.35;;;2.83;;
58565;SDS011;47788;46.172;-1.158;2022-09-24T14:00:25;6.28;;;3.20;;
58565;SDS011;47788;46.172;-1.158;2022-09-24T14:05:20;6.18;;;2.80;;
58565;SDS011;47788;46.172;-1.158;2022-09-24T14:07:53;6.72;;;2.60;;
58565;SDS011;47788;46.172;-1.158;2022-09-24T14:10:34;5.68;;;2.50;;
58565;SDS011;47788;46.172;-1.158;2022-09-24T14:13:01;5.63;;;2.10;;
58565;SDS011;47788;46.172;-1.158;2022-09-24T14:15:32;7.72;;;2.05;;
58565;SDS011;47788;46.172;-1.158;2022-09-24T14:18:00;3.08;;;1.75;;
58565;SDS011;47788;46.172;-1.158;2022-09-24T14:20:27;3.45;;;1.67;;
58565;SDS011;47788;46.172;-1.158;2022-09-24T14:22:58;3.67;;;1.65;;
58565;SDS011;47788;46.172;-1.158;2022-09-24T14:25:27;5.18;;;1.80;;
58565;SDS011;47788;46.172;-1.158;2022-09-24T14:27:56;4.82;;;1.52;;
58565;SDS011;47788;46.172;-1.158;2022-09-24T14:30:24;4.38;;;1.58;;
58565;SDS011;47788;46.172;-1.158;2022-09-24T14:33:02;2.03;;;1.25;;
58565;SDS011;47788;46.172;-1.158;2022-09-24T14:35:32;4.85;;;1.55;;
58565;SDS011;47788;46.172;-1.158;2022-09-24T14:41:06;3.72;;;1.85;;
58565;SDS011;47788;46.172;-1.158;2022-09-24T14:43:32;5.70;;;1.70;;
58565;SDS011;47788;46.172;-1.158;2022-09-24T14:48:39;12.68;;;3.22;;
58565;SDS011;47788;46.172;-1.158;2022-09-24T14:51:19;7.30;;;3.33;;
58565;SDS011;47788;46.172;-1.158;2022-09-24T14:54:01;6.68;;;2.47;;
58565;SDS011;47788;46.172;-1.158;2022-09-24T14:56:45;4.28;;;2.42;;
58565;SDS011;47788;46.172;-1.158;2022-09-24T14:59:14;4.45;;;2.28;;
58565;SDS011;47788;46.172;-1.158;2022-09-24T15:01:50;8.02;;;2.28;;
58565;SDS011;47788;46.172;-1.158;2022-09-24T15:04:28;6.00;;;2.50;;
58565;SDS011;47788;46.172;-1.158;2022-09-24T15:06:54;9.55;;;2.90;;
58565;SDS011;47788;46.172;-1.158;2022-09-24T15:09:29;6.25;;;2.20;;
58565;SDS011;47788;46.172;-1.158;2022-09-24T15:12:06;6.20;;;2.38;;
58565;SDS011;47788;46.172;-1.158;2022-09-24T15:14:33;5.50;;;2.63;;
58565;SDS011;47788;46.172;-1.158;2022-09-24T15:17:18;6.82;;;2.40;;
58565;SDS011;47788;46.172;-1.158;2022-09-24T15:19:46;8.32;;;2.50;;
58565;SDS011;47788;46.172;-1.158;2022-09-24T15:22:11;6.45;;;2.78;;
58565;SDS011;47788;46.172;-1.158;2022-09-24T15:24:37;4.90;;;2.53;;
58565;SDS011;47788;46.172;-1.158;2022-09-24T15:27:05;5.75;;;2.78;;
58565;SDS011;47788;46.172;-1.158;2022-09-24T15:29:39;7.50;;;2.83;;
58565;SDS011;47788;46.172;-1.158;2022-09-24T15:32:11;3.17;;;2.70;;
58565;SDS011;47788;46.172;-1.158;2022-09-24T15:34:43;6.75;;;3.00;;
58565;SDS011;47788;46.172;-1.158;2022-09-24T15:37:13;5.65;;;2.85;;
58565;SDS011;47788;46.172;-1.158;2022-09-24T15:39:41;6.10;;;2.65;;
58565;SDS011;47788;46.172;-1.158;2022-09-24T15:42:13;3.35;;;1.90;;
58565;SDS011;47788;46.172;-1.158;2022-09-24T15:44:40;2.42;;;1.90;;
58565;SDS011;47788;46.172;-1.158;2022-09-24T15:47:07;4.82;;;1.80;;
58565;SDS011;47788;46.172;-1.158;2022-09-24T15:49:33;2.72;;;1.65;;
58565;SDS011;47788;46.172;-1.158;2022-09-24T15:51:59;7.53;;;1.92;;
58565;SDS011;47788;46.172;-1.158;2022-09-24T15:54:29;3.15;;;2.17;;
58565;SDS011;47788;46.172;-1.158;2022-09-24T15:56:55;3.22;;;1.60;;
58565;SDS011;47788;46.172;-1.158;2022-09-24T15:59:21;3.38;;;1.55;;
58565;SDS011;47788;46.172;-1.158;2022-09-24T16:01:50;3.33;;;1.40;;
58565;SDS011;47788;46.172;-1.158;2022-09-24T16:04:18;2.67;;;1.20;;
58565;SDS011;47788;46.172;-1.158;2022-09-24T16:06:44;3.50;;;1.30;;
58565;SDS011;47788;46.172;-1.158;2022-09-24T16:09:10;3.85;;;1.20;;
58565;SDS011;47788;46.172;-1.158;2022-09-24T16:11:36;2.25;;;1.20;;
58565;SDS011;47788;46.172;-1.158;2022-09-24T16:14:01;2.67;;;1.02;;
58565;SDS011;47788;46.172;-1.158;2022-09-24T16:16:27;2.47;;;0.93;;
58565;SDS011;47788;46.172;-1.158;2022-09-24T16:18:53;2.63;;;0.73;;
58565;SDS011;47788;46.172;-1.158;2022-09-24T16:21:18;3.78;;;0.90;;
58565;SDS011;47788;46.172;-1.158;2022-09-24T16:23:44;2.17;;;0.70;;
58565;SDS011;47788;46.172;-1.158;2022-09-24T16:26:10;2.92;;;0.90;;
58565;SDS011;47788;46.172;-1.158;2022-09-24T16:28:35;1.67;;;0.63;;
58565;SDS011;47788;46.172;-1.158;2022-09-24T16:31:04;1.98;;;0.88;;
58565;SDS011;47788;46.172;-1.158;2022-09-24T16:33:31;3.55;;;0.77;;
58565;SDS011;47788;46.172;-1.158;2022-09-24T16:36:07;3.38;;;0.75;;
58565;SDS011;47788;46.172;-1.158;2022-09-24T16:38:36;2.50;;;0.80;;
58565;SDS011;47788;46.172;-1.158;2022-09-24T16:41:03;2.40;;;1.00;;